sensor_id;sensor_type;location;lat;lon;timestamp;pressure;altitude;pressure_sealevel;temperature;humidity
7200;BME280;3641;49.082;8.200;2022-12-28T00:00:05;101189.16;;;2.52;99.08
7200;BME280;3641;49.082;8.200;2022-12-28T00:02:32;101193.91;;;2.86;97.61
7200;BME280;3641;49.082;8.200;2022-12-28T00:04:59;101195.97;;;3.06;96.06
7200;BME280;3641;49.082;8.200;2022-12-28T00:07:27;101190.59;;;2.69;97.33
7200;BME280;3641;49.082;8.200;2022-12-28T00:09:53;101184.69;;;2.88;96.99
7200;BME280;3641;49.082;8.200;2022-12-28T00:12:19;101182.22;;;2.85;96.76
7200;BME280;3641;49.082;8.200;2022-12-28T00:14:46;101177.00;;;2.71;97.15
7200;BME280;3641;49.082;8.200;2022-12-28T00:17:12;101172.53;;;2.83;96.92
7200;BME280;3641;49.082;8.200;2022-12-28T00:19:39;101166.50;;;2.79;96.11
7200;BME280;3641;49.082;8.200;2022-12-28T00:22:05;101160.19;;;2.67;97.47
7200;BME280;3641;49.082;8.200;2022-12-28T00:24:33;101162.06;;;2.67;96.79
7200;BME280;3641;49.082;8.200;2022-12-28T00:27:00;101149.38;;;2.80;97.50
7200;BME280;3641;49.082;8.200;2022-12-28T00:29:26;101156.78;;;2.65;96.52
7200;BME280;3641;49.082;8.200;2022-12-28T00:31:53;101145.97;;;2.89;96.94
7200;BME280;3641;49.082;8.200;2022-12-28T00:34:19;101150.63;;;2.63;98.18
7200;BME280;3641;49.082;8.200;2022-12-28T00:36:49;101146.03;;;2.52;99.16
7200;BME280;3641;49.082;8.200;2022-12-28T00:39:15;101142.84;;;2.71;97.90
7200;BME280;3641;49.082;8.200;2022-12-28T00:41:43;101146.72;;;2.43;99.49
7200;BME280;3641;49.082;8.200;2022-12-28T00:44:09;101139.47;;;2.44;99.40
7200;BME280;3641;49.082;8.200;2022-12-28T00:46:36;101132.09;;;2.83;97.55
7200;BME280;3641;49.082;8.200;2022-12-28T00:49:03;101123.59;;;3.00;96.47
7200;BME280;3641;49.082;8.200;2022-12-28T00:51:29;101125.59;;;3.09;95.30
7200;BME280;3641;49.082;8.200;2022-12-28T00:53:56;101118.72;;;3.17;95.27
7200;BME280;3641;49.082;8.200;2022-12-28T00:56:22;101112.84;;;2.76;97.05
7200;BME280;3641;49.082;8.200;2022-12-28T00:58:54;101099.16;;;2.90;96.70
7200;BME280;3641;49.082;8.200;2022-12-28T01:01:22;101096.13;;;2.71;97.04
7200;BME280;3641;49.082;8.200;2022-12-28T01:03:49;101090.34;;;2.64;98.48
7200;BME280;3641;49.082;8.200;2022-12-28T01:06:18;101083.03;;;3.02;96.76
7200;BME280;3641;49.082;8.200;2022-12-28T01:08:45;101079.56;;;3.00;96.57
7200;BME280;3641;49.082;8.200;2022-12-28T01:11:15;101086.19;;;2.96;96.82
7200;BME280;3641;49.082;8.200;2022-12-28T01:13:42;101082.56;;;2.84;97.82
7200;BME280;3641;49.082;8.200;2022-12-28T01:16:11;101082.81;;;2.81;98.20
7200;BME280;3641;49.082;8.200;2022-12-28T01:18:37;101084.63;;;3.16;96.32
7200;BME280;3641;49.082;8.200;2022-12-28T01:21:09;101077.41;;;3.05;97.14
7200;BME280;3641;49.082;8.200;2022-12-28T01:23:36;101067.25;;;3.20;95.31
7200;BME280;3641;49.082;8.200;2022-12-28T01:26:02;101061.31;;;2.92;97.02
7200;BME280;3641;49.082;8.200;2022-12-28T01:28:29;101055.81;;;3.05;97.90
7200;BME280;3641;49.082;8.200;2022-12-28T01:30:56;101057.78;;;3.14;97.80
7200;BME280;3641;49.082;8.200;2022-12-28T01:33:23;101062.72;;;3.32;95.56
7200;BME280;3641;49.082;8.200;2022-12-28T01:35:50;101062.72;;;3.43;94.49
7200;BME280;3641;49.082;8.200;2022-12-28T01:38:16;101058.56;;;3.39;94.86
7200;BME280;3641;49.082;8.200;2022-12-28T01:40:43;101054.63;;;3.32;96.00
7200;BME280;3641;49.082;8.200;2022-12-28T01:43:12;101053.13;;;3.16;97.30
7200;BME280;3641;49.082;8.200;2022-12-28T01:45:39;101042.97;;;3.31;96.53
7200;BME280;3641;49.082;8.200;2022-12-28T01:48:16;101042.25;;;3.52;95.36
7200;BME280;3641;49.082;8.200;2022-12-28T01:50:47;101038.50;;;3.07;97.75
7200;BME280;3641;49.082;8.200;2022-12-28T01:53:15;101034.00;;;3.08;98.42
7200;BME280;3641;49.082;8.200;2022-12-28T01:55:42;101031.09;;;3.22;97.59
7200;BME280;3641;49.082;8.200;2022-12-28T01:58:10;101023.59;;;3.15;98.06
7200;BME280;3641;49.082;8.200;2022-12-28T02:00:40;101012.81;;;3.37;97.05
7200;BME280;3641;49.082;8.200;2022-12-28T02:03:09;101009.59;;;3.66;94.25
7200;BME280;3641;49.082;8.200;2022-12-28T02:05:38;101012.94;;;3.36;97.34
7200;BME280;3641;49.082;8.200;2022-12-28T02:08:09;101011.59;;;3.64;95.23
7200;BME280;3641;49.082;8.200;2022-12-28T02:10:38;101004.34;;;3.53;95.89
7200;BME280;3641;49.082;8.200;2022-12-28T02:13:06;101015.63;;;3.36;97.28
7200;BME280;3641;49.082;8.200;2022-12-28T02:15:33;101019.16;;;3.48;96.84
7200;BME280;3641;49.082;8.200;2022-12-28T02:17:59;101015.59;;;3.70;94.89
7200;BME280;3641;49.082;8.200;2022-12-28T02:20:32;101000.66;;;3.54;96.23
7200;BME280;3641;49.082;8.200;2022-12-28T02:23:24;101003.63;;;3.40;97.14
7200;BME280;3641;49.082;8.200;2022-12-28T02:29:07;101003.09;;;3.57;95.76
7200;BME280;3641;49.082;8.200;2022-12-28T02:31:42;101004.44;;;3.74;94.69
7200;BME280;3641;49.082;8.200;2022-12-28T02:34:16;100999.75;;;3.76;94.46
7200;BME280;3641;49.082;8.200;2022-12-28T02:36:49;100990.72;;;3.66;95.59
7200;BME280;3641;49.082;8.200;2022-12-28T02:39:20;100991.03;;;3.84;93.88
7200;BME280;3641;49.082;8.200;2022-12-28T02:41:49;100990.31;;;3.82;94.77
7200;BME280;3641;49.082;8.200;2022-12-28T02:44:18;100982.41;;;4.02;93.26
7200;BME280;3641;49.082;8.200;2022-12-28T02:46:59;100985.00;;;3.92;93.71
7200;BME280;3641;49.082;8.200;2022-12-28T02:49:43;100972.00;;;3.86;94.31
7200;BME280;3641;49.082;8.200;2022-12-28T02:52:33;100952.47;;;3.38;96.70
7200;BME280;3641;49.082;8.200;2022-12-28T02:55:16;100964.34;;;3.58;96.46
7200;BME280;3641;49.082;8.200;2022-12-28T02:58:18;100960.00;;;3.78;94.72
7200;BME280;3641;49.082;8.200;2022-12-28T03:00:57;100956.19;;;3.81;95.10
7200;BME280;3641;49.082;8.200;2022-12-28T03:03:33;100950.06;;;3.79;94.90
7200;BME280;3641;49.082;8.200;2022-12-28T03:06:11;100942.50;;;3.50;96.43
7200;BME280;3641;49.082;8.200;2022-12-28T03:09:03;100943.59;;;3.48;96.29
7200;BME280;3641;49.082;8.200;2022-12-28T03:11:36;100935.09;;;3.75;94.98
7200;BME280;3641;49.082;8.200;2022-12-28T03:14:06;100933.94;;;3.45;96.02
7200;BME280;3641;49.082;8.200;2022-12-28T03:16:46;100925.81;;;3.56;96.68
7200;BME280;3641;49.082;8.200;2022-12-28T03:19:45;100933.88;;;3.68;95.45
7200;BME280;3641;49.082;8.200;2022-12-28T03:22:32;100923.44;;;3.74;96.04
7200;BME280;3641;49.082;8.200;2022-12-28T03:25:21;100929.56;;;3.76;96.25
7200;BME280;3641;49.082;8.200;2022-12-28T03:28:09;100926.13;;;3.74;95.98
7200;BME280;3641;49.082;8.200;2022-12-28T03:30:58;100920.63;;;3.64;96.37
7200;BME280;3641;49.082;8.200;2022-12-28T03:33:32;100922.47;;;3.75;95.50
7200;BME280;3641;49.082;8.200;2022-12-28T03:36:03;100913.91;;;3.70;95.85
7200;BME280;3641;49.082;8.200;2022-12-28T03:38:39;100912.72;;;3.84;95.47
7200;BME280;3641;49.082;8.200;2022-12-28T03:41:12;100911.41;;;3.78;96.06
7200;BME280;3641;49.082;8.200;2022-12-28T03:43:49;100914.03;;;3.69;96.02
7200;BME280;3641;49.082;8.200;2022-12-28T03:46:21;100915.25;;;3.64;95.96
7200;BME280;3641;49.082;8.200;2022-12-28T03:48:50;100910.78;;;3.75;95.48
7200;BME280;3641;49.082;8.200;2022-12-28T03:51:21;100908.22;;;3.73;95.93
7200;BME280;3641;49.082;8.200;2022-12-28T03:53:48;100894.19;;;3.79;95.63
7200;BME280;3641;49.082;8.200;2022-12-28T03:56:16;100893.63;;;3.64;96.00
7200;BME280;3641;49.082;8.200;2022-12-28T03:58:43;100888.38;;;3.95;94.76
7200;BME280;3641;49.082;8.200;2022-12-28T04:01:10;100882.56;;;3.79;95.04
7200;BME280;3641;49.082;8.200;2022-12-28T04:03:37;100881.03;;;3.97;94.80
7200;BME280;3641;49.082;8.200;2022-12-28T04:06:06;100877.63;;;4.16;92.97
7200;BME280;3641;49.082;8.200;2022-12-28T04:08:33;100873.69;;;3.88;95.47
7200;BME280;3641;49.082;8.200;2022-12-28T04:11:00;100884.69;;;3.96;93.71
7200;BME280;3641;49.082;8.200;2022-12-28T04:13:28;100882.19;;;4.05;94.47
7200;BME280;3641;49.082;8.200;2022-12-28T04:15:56;100876.00;;;3.93;95.49
7200;BME280;3641;49.082;8.200;2022-12-28T04:18:23;100876.91;;;3.82;95.92
7200;BME280;3641;49.082;8.200;2022-12-28T04:20:49;100873.97;;;4.06;94.06
7200;BME280;3641;49.082;8.200;2022-12-28T04:23:17;100879.69;;;3.92;94.92
7200;BME280;3641;49.082;8.200;2022-12-28T04:25:55;100880.28;;;3.95;94.64
7200;BME280;3641;49.082;8.200;2022-12-28T04:28:21;100881.41;;;3.93;94.50
7200;BME280;3641;49.082;8.200;2022-12-28T04:30:47;100875.69;;;4.07;94.39
7200;BME280;3641;49.082;8.200;2022-12-28T04:33:14;100869.25;;;3.87;95.13
7200;BME280;3641;49.082;8.200;2022-12-28T04:35:40;100856.59;;;3.88;94.98
7200;BME280;3641;49.082;8.200;2022-12-28T04:38:07;100857.41;;;3.78;95.17
7200;BME280;3641;49.082;8.200;2022-12-28T04:40:34;100849.13;;;4.12;94.14
7200;BME280;3641;49.082;8.200;2022-12-28T04:43:01;100846.16;;;4.15;93.97
7200;BME280;3641;49.082;8.200;2022-12-28T04:45:27;100844.31;;;4.16;93.87
7200;BME280;3641;49.082;8.200;2022-12-28T04:47:55;100845.00;;;4.29;93.14
7200;BME280;3641;49.082;8.200;2022-12-28T04:50:22;100846.63;;;4.21;93.41
7200;BME280;3641;49.082;8.200;2022-12-28T04:52:48;100845.84;;;4.30;92.70
7200;BME280;3641;49.082;8.200;2022-12-28T04:55:15;100847.97;;;4.26;93.61
7200;BME280;3641;49.082;8.200;2022-12-28T04:57:43;100852.41;;;4.37;92.95
7200;BME280;3641;49.082;8.200;2022-12-28T05:00:11;100841.16;;;4.32;93.01
7200;BME280;3641;49.082;8.200;2022-12-28T05:02:38;100838.59;;;4.09;93.33
7200;BME280;3641;49.082;8.200;2022-12-28T05:05:06;100839.75;;;3.95;94.19
7200;BME280;3641;49.082;8.200;2022-12-28T05:07:32;100838.44;;;3.90;94.21
7200;BME280;3641;49.082;8.200;2022-12-28T05:09:59;100839.03;;;4.14;93.76
7200;BME280;3641;49.082;8.200;2022-12-28T05:12:25;100836.53;;;4.23;92.95
7200;BME280;3641;49.082;8.200;2022-12-28T05:14:53;100833.56;;;4.26;92.77
7200;BME280;3641;49.082;8.200;2022-12-28T05:17:19;100826.72;;;4.22;92.76
7200;BME280;3641;49.082;8.200;2022-12-28T05:19:46;100840.97;;;4.24;92.66
7200;BME280;3641;49.082;8.200;2022-12-28T05:22:12;100831.94;;;4.34;92.10
7200;BME280;3641;49.082;8.200;2022-12-28T05:24:41;100828.09;;;4.37;92.42
7200;BME280;3641;49.082;8.200;2022-12-28T05:27:07;100822.75;;;4.26;92.18
7200;BME280;3641;49.082;8.200;2022-12-28T05:29:34;100817.88;;;4.19;92.56
7200;BME280;3641;49.082;8.200;2022-12-28T05:32:02;100808.53;;;4.24;92.75
7200;BME280;3641;49.082;8.200;2022-12-28T05:34:28;100808.63;;;4.43;92.23
7200;BME280;3641;49.082;8.200;2022-12-28T05:36:54;100807.75;;;4.33;92.33
7200;BME280;3641;49.082;8.200;2022-12-28T05:39:21;100802.59;;;4.30;92.43
7200;BME280;3641;49.082;8.200;2022-12-28T05:41:48;100801.09;;;4.16;91.73
7200;BME280;3641;49.082;8.200;2022-12-28T05:44:14;100785.84;;;4.36;91.77
7200;BME280;3641;49.082;8.200;2022-12-28T05:46:41;100791.09;;;4.28;91.64
7200;BME280;3641;49.082;8.200;2022-12-28T05:49:09;100784.78;;;4.27;91.79
7200;BME280;3641;49.082;8.200;2022-12-28T05:51:35;100790.31;;;4.47;91.82
7200;BME280;3641;49.082;8.200;2022-12-28T05:54:02;100802.06;;;4.36;91.89
7200;BME280;3641;49.082;8.200;2022-12-28T05:56:30;100796.00;;;4.44;91.43
7200;BME280;3641;49.082;8.200;2022-12-28T05:58:58;100792.69;;;4.40;91.61
7200;BME280;3641;49.082;8.200;2022-12-28T06:01:26;100792.06;;;4.27;91.83
7200;BME280;3641;49.082;8.200;2022-12-28T06:03:55;100789.09;;;4.30;91.17
7200;BME280;3641;49.082;8.200;2022-12-28T06:06:23;100793.97;;;4.36;91.12
7200;BME280;3641;49.082;8.200;2022-12-28T06:08:50;100783.94;;;4.27;91.42
7200;BME280;3641;49.082;8.200;2022-12-28T06:11:18;100789.66;;;4.33;91.02
7200;BME280;3641;49.082;8.200;2022-12-28T06:13:45;100791.03;;;4.49;90.94
7200;BME280;3641;49.082;8.200;2022-12-28T06:16:14;100785.53;;;4.60;90.83
7200;BME280;3641;49.082;8.200;2022-12-28T06:18:42;100785.06;;;4.45;90.77
7200;BME280;3641;49.082;8.200;2022-12-28T06:21:10;100780.00;;;4.62;91.14
7200;BME280;3641;49.082;8.200;2022-12-28T06:23:39;100777.97;;;4.54;90.17
7200;BME280;3641;49.082;8.200;2022-12-28T06:26:06;100767.66;;;4.38;91.50
7200;BME280;3641;49.082;8.200;2022-12-28T06:28:35;100773.28;;;4.56;90.88
7200;BME280;3641;49.082;8.200;2022-12-28T06:31:03;100760.28;;;4.50;90.90
7200;BME280;3641;49.082;8.200;2022-12-28T06:33:30;100768.50;;;4.39;90.54
7200;BME280;3641;49.082;8.200;2022-12-28T06:35:57;100760.72;;;4.45;91.74
7200;BME280;3641;49.082;8.200;2022-12-28T06:38:24;100765.03;;;4.58;91.25
7200;BME280;3641;49.082;8.200;2022-12-28T06:40:52;100767.59;;;4.59;91.13
7200;BME280;3641;49.082;8.200;2022-12-28T06:43:18;100756.78;;;4.59;90.57
7200;BME280;3641;49.082;8.200;2022-12-28T06:45:53;100758.34;;;4.52;90.08
7200;BME280;3641;49.082;8.200;2022-12-28T06:48:20;100757.69;;;4.39;89.95
7200;BME280;3641;49.082;8.200;2022-12-28T06:50:53;100744.66;;;4.44;90.88
7200;BME280;3641;49.082;8.200;2022-12-28T06:53:20;100744.50;;;4.45;90.74
7200;BME280;3641;49.082;8.200;2022-12-28T06:55:53;100739.72;;;4.59;90.38
7200;BME280;3641;49.082;8.200;2022-12-28T06:58:19;100746.63;;;4.51;90.59
7200;BME280;3641;49.082;8.200;2022-12-28T07:00:46;100742.22;;;4.41;90.61
7200;BME280;3641;49.082;8.200;2022-12-28T07:03:12;100741.88;;;4.34;90.83
7200;BME280;3641;49.082;8.200;2022-12-28T07:05:38;100736.75;;;4.31;90.58
7200;BME280;3641;49.082;8.200;2022-12-28T07:08:05;100731.28;;;4.21;90.58
7200;BME280;3641;49.082;8.200;2022-12-28T07:10:32;100734.81;;;4.43;90.94
7200;BME280;3641;49.082;8.200;2022-12-28T07:13:00;100731.22;;;4.32;90.84
7200;BME280;3641;49.082;8.200;2022-12-28T07:15:26;100731.66;;;4.38;90.76
7200;BME280;3641;49.082;8.200;2022-12-28T07:17:53;100730.84;;;4.47;90.47
7200;BME280;3641;49.082;8.200;2022-12-28T07:20:19;100730.13;;;4.45;90.32
7200;BME280;3641;49.082;8.200;2022-12-28T07:22:46;100717.63;;;4.44;90.37
7200;BME280;3641;49.082;8.200;2022-12-28T07:25:12;100716.91;;;4.51;90.51
7200;BME280;3641;49.082;8.200;2022-12-28T07:27:39;100716.75;;;4.53;90.10
7200;BME280;3641;49.082;8.200;2022-12-28T07:30:08;100719.44;;;4.43;89.89
7200;BME280;3641;49.082;8.200;2022-12-28T07:32:35;100718.72;;;4.41;89.72
7200;BME280;3641;49.082;8.200;2022-12-28T07:35:02;100722.63;;;4.48;89.98
7200;BME280;3641;49.082;8.200;2022-12-28T07:37:29;100729.16;;;4.55;90.23
7200;BME280;3641;49.082;8.200;2022-12-28T07:39:56;100730.16;;;4.54;89.94
7200;BME280;3641;49.082;8.200;2022-12-28T07:42:22;100730.13;;;4.45;89.95
7200;BME280;3641;49.082;8.200;2022-12-28T07:44:49;100733.00;;;4.53;89.74
7200;BME280;3641;49.082;8.200;2022-12-28T07:47:17;100732.72;;;4.56;90.13
7200;BME280;3641;49.082;8.200;2022-12-28T07:49:44;100720.25;;;4.65;89.54
7200;BME280;3641;49.082;8.200;2022-12-28T07:52:10;100722.13;;;4.74;89.57
7200;BME280;3641;49.082;8.200;2022-12-28T07:54:37;100723.38;;;4.70;89.66
7200;BME280;3641;49.082;8.200;2022-12-28T07:57:03;100731.66;;;4.78;89.61
7200;BME280;3641;49.082;8.200;2022-12-28T07:59:30;100721.09;;;4.65;89.76
7200;BME280;3641;49.082;8.200;2022-12-28T08:01:57;100710.13;;;4.67;89.84
7200;BME280;3641;49.082;8.200;2022-12-28T08:04:24;100715.56;;;4.77;89.80
7200;BME280;3641;49.082;8.200;2022-12-28T08:06:51;100729.59;;;4.61;89.35
7200;BME280;3641;49.082;8.200;2022-12-28T08:09:17;100717.13;;;4.69;88.92
7200;BME280;3641;49.082;8.200;2022-12-28T08:11:44;100712.84;;;4.77;89.55
7200;BME280;3641;49.082;8.200;2022-12-28T08:14:13;100716.63;;;4.54;89.31
7200;BME280;3641;49.082;8.200;2022-12-28T08:16:42;100716.44;;;4.77;89.71
7200;BME280;3641;49.082;8.200;2022-12-28T08:19:09;100713.44;;;4.80;89.67
7200;BME280;3641;49.082;8.200;2022-12-28T08:21:39;100710.63;;;4.91;89.39
7200;BME280;3641;49.082;8.200;2022-12-28T08:24:07;100695.50;;;4.69;88.97
7200;BME280;3641;49.082;8.200;2022-12-28T08:26:35;100700.75;;;4.71;89.90
7200;BME280;3641;49.082;8.200;2022-12-28T08:29:04;100704.59;;;4.68;89.50
7200;BME280;3641;49.082;8.200;2022-12-28T08:31:32;100698.91;;;4.81;89.85
7200;BME280;3641;49.082;8.200;2022-12-28T08:34:00;100699.91;;;4.80;89.89
7200;BME280;3641;49.082;8.200;2022-12-28T08:36:27;100696.38;;;4.89;88.93
7200;BME280;3641;49.082;8.200;2022-12-28T08:38:55;100687.41;;;4.99;89.63
7200;BME280;3641;49.082;8.200;2022-12-28T08:41:24;100690.25;;;4.87;88.74
7200;BME280;3641;49.082;8.200;2022-12-28T08:43:52;100694.13;;;4.95;89.29
7200;BME280;3641;49.082;8.200;2022-12-28T08:46:23;100695.38;;;4.81;88.46
7200;BME280;3641;49.082;8.200;2022-12-28T08:48:51;100693.25;;;4.94;88.51
7200;BME280;3641;49.082;8.200;2022-12-28T08:51:19;100693.09;;;4.86;88.30
7200;BME280;3641;49.082;8.200;2022-12-28T08:53:46;100697.81;;;4.94;88.75
7200;BME280;3641;49.082;8.200;2022-12-28T08:56:16;100700.94;;;4.89;88.52
7200;BME280;3641;49.082;8.200;2022-12-28T08:58:44;100700.38;;;5.05;88.11
7200;BME280;3641;49.082;8.200;2022-12-28T09:01:13;100691.09;;;4.98;87.99
7200;BME280;3641;49.082;8.200;2022-12-28T09:03:42;100692.56;;;5.12;87.91
7200;BME280;3641;49.082;8.200;2022-12-28T09:06:11;100700.81;;;5.00;88.14
7200;BME280;3641;49.082;8.200;2022-12-28T09:08:38;100686.16;;;5.03;87.28
7200;BME280;3641;49.082;8.200;2022-12-28T09:11:06;100698.53;;;5.05;87.61
7200;BME280;3641;49.082;8.200;2022-12-28T09:13:35;100683.03;;;5.07;88.13
7200;BME280;3641;49.082;8.200;2022-12-28T09:16:04;100690.41;;;5.15;87.76
7200;BME280;3641;49.082;8.200;2022-12-28T09:18:31;100688.16;;;5.20;87.48
7200;BME280;3641;49.082;8.200;2022-12-28T09:21:03;100677.19;;;5.22;87.90
7200;BME280;3641;49.082;8.200;2022-12-28T09:23:30;100689.56;;;5.24;87.35
7200;BME280;3641;49.082;8.200;2022-12-28T09:26:02;100687.72;;;5.25;87.23
7200;BME280;3641;49.082;8.200;2022-12-28T09:28:29;100691.28;;;5.35;87.90
7200;BME280;3641;49.082;8.200;2022-12-28T09:30:56;100695.09;;;5.42;87.33
7200;BME280;3641;49.082;8.200;2022-12-28T09:33:23;100695.41;;;5.49;87.11
7200;BME280;3641;49.082;8.200;2022-12-28T09:36:07;100697.38;;;5.47;87.33
7200;BME280;3641;49.082;8.200;2022-12-28T09:38:34;100700.69;;;5.51;87.36
7200;BME280;3641;49.082;8.200;2022-12-28T09:41:00;100695.69;;;5.56;87.12
7200;BME280;3641;49.082;8.200;2022-12-28T09:43:27;100696.13;;;5.51;86.71
7200;BME280;3641;49.082;8.200;2022-12-28T09:45:54;100693.81;;;5.56;86.44
7200;BME280;3641;49.082;8.200;2022-12-28T09:48:22;100691.81;;;5.58;86.03
7200;BME280;3641;49.082;8.200;2022-12-28T09:50:50;100697.81;;;5.62;86.54
7200;BME280;3641;49.082;8.200;2022-12-28T09:53:24;100697.25;;;5.68;86.59
7200;BME280;3641;49.082;8.200;2022-12-28T09:55:58;100700.66;;;5.70;85.82
7200;BME280;3641;49.082;8.200;2022-12-28T09:58:26;100696.63;;;5.74;85.70
7200;BME280;3641;49.082;8.200;2022-12-28T10:00:55;100688.97;;;5.79;85.64
7200;BME280;3641;49.082;8.200;2022-12-28T10:03:25;100693.06;;;5.83;85.26
7200;BME280;3641;49.082;8.200;2022-12-28T10:05:54;100688.34;;;5.95;85.11
7200;BME280;3641;49.082;8.200;2022-12-28T10:08:22;100688.63;;;6.02;84.49
7200;BME280;3641;49.082;8.200;2022-12-28T10:10:51;100687.47;;;6.05;84.64
7200;BME280;3641;49.082;8.200;2022-12-28T10:13:20;100688.31;;;6.15;85.15
7200;BME280;3641;49.082;8.200;2022-12-28T10:15:47;100679.19;;;6.71;81.72
7200;BME280;3641;49.082;8.200;2022-12-28T10:18:16;100680.81;;;6.64;82.22
7200;BME280;3641;49.082;8.200;2022-12-28T10:20:48;100677.28;;;6.54;82.34
7200;BME280;3641;49.082;8.200;2022-12-28T10:23:18;100668.16;;;6.55;82.76
7200;BME280;3641;49.082;8.200;2022-12-28T10:25:47;100668.16;;;6.55;83.54
7200;BME280;3641;49.082;8.200;2022-12-28T10:28:15;100665.59;;;6.53;83.33
7200;BME280;3641;49.082;8.200;2022-12-28T10:30:46;100662.03;;;6.53;83.31
7200;BME280;3641;49.082;8.200;2022-12-28T10:33:17;100660.56;;;6.59;82.99
7200;BME280;3641;49.082;8.200;2022-12-28T10:35:51;100650.28;;;6.62;83.38
7200;BME280;3641;49.082;8.200;2022-12-28T10:38:20;100651.50;;;6.68;83.46
7200;BME280;3641;49.082;8.200;2022-12-28T10:40:55;100647.94;;;6.67;81.50
7200;BME280;3641;49.082;8.200;2022-12-28T10:43:27;100631.91;;;6.74;81.20
7200;BME280;3641;49.082;8.200;2022-12-28T10:45:54;100627.75;;;6.80;80.79
7200;BME280;3641;49.082;8.200;2022-12-28T10:48:24;100626.94;;;6.87;80.46
7200;BME280;3641;49.082;8.200;2022-12-28T10:50:55;100619.38;;;6.91;80.33
7200;BME280;3641;49.082;8.200;2022-12-28T10:53:27;100609.06;;;6.95;80.16
7200;BME280;3641;49.082;8.200;2022-12-28T10:56:04;100613.47;;;6.96;80.19
7200;BME280;3641;49.082;8.200;2022-12-28T10:58:32;100612.16;;;7.00;80.01
7200;BME280;3641;49.082;8.200;2022-12-28T11:01:01;100601.50;;;7.06;80.88
7200;BME280;3641;49.082;8.200;2022-12-28T11:03:30;100600.13;;;7.02;80.67
7200;BME280;3641;49.082;8.200;2022-12-28T11:06:12;100595.94;;;7.08;80.25
7200;BME280;3641;49.082;8.200;2022-12-28T11:08:40;100593.38;;;7.06;81.10
7200;BME280;3641;49.082;8.200;2022-12-28T11:11:16;100586.78;;;7.09;82.08
7200;BME280;3641;49.082;8.200;2022-12-28T11:13:44;100589.56;;;7.17;80.18
7200;BME280;3641;49.082;8.200;2022-12-28T11:16:13;100581.41;;;7.17;79.74
7200;BME280;3641;49.082;8.200;2022-12-28T11:18:40;100571.50;;;7.26;80.88
7200;BME280;3641;49.082;8.200;2022-12-28T11:21:09;100582.00;;;7.29;80.95
7200;BME280;3641;49.082;8.200;2022-12-28T11:23:37;100579.38;;;7.37;79.79
7200;BME280;3641;49.082;8.200;2022-12-28T11:26:09;100569.72;;;7.43;80.09
7200;BME280;3641;49.082;8.200;2022-12-28T11:28:35;100568.78;;;7.52;80.78
7200;BME280;3641;49.082;8.200;2022-12-28T11:31:03;100571.16;;;7.55;79.14
7200;BME280;3641;49.082;8.200;2022-12-28T11:33:36;100569.03;;;7.67;78.08
7200;BME280;3641;49.082;8.200;2022-12-28T11:36:04;100573.81;;;7.73;79.21
7200;BME280;3641;49.082;8.200;2022-12-28T11:38:40;100559.34;;;7.64;78.94
7200;BME280;3641;49.082;8.200;2022-12-28T11:41:09;100544.97;;;7.72;77.44
7200;BME280;3641;49.082;8.200;2022-12-28T11:46:38;100554.28;;;7.70;77.24
7200;BME280;3641;49.082;8.200;2022-12-28T11:49:22;100535.44;;;7.76;77.31
7200;BME280;3641;49.082;8.200;2022-12-28T11:54:54;100529.34;;;7.74;80.21
7200;BME280;3641;49.082;8.200;2022-12-28T11:57:35;100527.09;;;7.70;80.02
7200;BME280;3641;49.082;8.200;2022-12-28T12:00:45;100515.06;;;7.72;79.34
7200;BME280;3641;49.082;8.200;2022-12-28T12:03:13;100511.16;;;7.75;79.32
7200;BME280;3641;49.082;8.200;2022-12-28T12:05:50;100509.28;;;7.75;80.42
7200;BME280;3641;49.082;8.200;2022-12-28T12:08:39;100505.38;;;7.70;80.81
7200;BME280;3641;49.082;8.200;2022-12-28T12:11:27;100495.69;;;7.75;79.81
7200;BME280;3641;49.082;8.200;2022-12-28T12:13:58;100499.28;;;7.76;79.47
7200;BME280;3641;49.082;8.200;2022-12-28T12:16:30;100495.59;;;7.85;78.36
7200;BME280;3641;49.082;8.200;2022-12-28T12:18:59;100488.63;;;7.91;77.97
7200;BME280;3641;49.082;8.200;2022-12-28T12:21:30;100486.59;;;7.93;78.85
7200;BME280;3641;49.082;8.200;2022-12-28T12:24:02;100487.28;;;7.87;78.11
7200;BME280;3641;49.082;8.200;2022-12-28T12:26:36;100481.84;;;7.87;78.71
7200;BME280;3641;49.082;8.200;2022-12-28T12:29:06;100472.34;;;8.07;76.75
7200;BME280;3641;49.082;8.200;2022-12-28T12:31:40;100470.69;;;8.14;76.13
7200;BME280;3641;49.082;8.200;2022-12-28T12:34:16;100469.63;;;8.07;77.55
7200;BME280;3641;49.082;8.200;2022-12-28T12:39:39;100463.22;;;8.16;75.78
7200;BME280;3641;49.082;8.200;2022-12-28T12:42:19;100458.47;;;8.18;76.13
7200;BME280;3641;49.082;8.200;2022-12-28T12:44:54;100453.88;;;8.27;75.24
7200;BME280;3641;49.082;8.200;2022-12-28T12:47:45;100451.00;;;8.29;74.94
7200;BME280;3641;49.082;8.200;2022-12-28T12:53:25;100439.28;;;8.28;75.07
7200;BME280;3641;49.082;8.200;2022-12-28T12:56:00;100427.38;;;8.21;76.18
7200;BME280;3641;49.082;8.200;2022-12-28T12:58:45;100421.75;;;8.23;75.90
7200;BME280;3641;49.082;8.200;2022-12-28T13:01:25;100425.66;;;8.12;76.99
7200;BME280;3641;49.082;8.200;2022-12-28T13:03:55;100410.88;;;8.23;76.29
7200;BME280;3641;49.082;8.200;2022-12-28T13:06:25;100406.81;;;8.27;75.33
7200;BME280;3641;49.082;8.200;2022-12-28T13:08:56;100397.81;;;8.34;74.70
7200;BME280;3641;49.082;8.200;2022-12-28T13:11:25;100394.41;;;8.32;74.15
7200;BME280;3641;49.082;8.200;2022-12-28T13:13:53;100389.13;;;8.23;75.97
7200;BME280;3641;49.082;8.200;2022-12-28T13:16:22;100396.09;;;8.25;76.24
7200;BME280;3641;49.082;8.200;2022-12-28T13:18:54;100395.09;;;8.34;76.23
7200;BME280;3641;49.082;8.200;2022-12-28T13:21:21;100387.44;;;8.30;75.75
7200;BME280;3641;49.082;8.200;2022-12-28T13:23:49;100379.28;;;8.38;75.58
7200;BME280;3641;49.082;8.200;2022-12-28T13:26:17;100382.34;;;8.35;75.22
7200;BME280;3641;49.082;8.200;2022-12-28T13:28:50;100373.66;;;8.40;73.56
7200;BME280;3641;49.082;8.200;2022-12-28T13:31:20;100373.34;;;8.34;75.01
7200;BME280;3641;49.082;8.200;2022-12-28T13:33:55;100366.53;;;8.47;73.00
7200;BME280;3641;49.082;8.200;2022-12-28T13:36:22;100366.03;;;8.43;74.53
7200;BME280;3641;49.082;8.200;2022-12-28T13:39:03;100362.63;;;8.33;74.65
7200;BME280;3641;49.082;8.200;2022-12-28T13:41:31;100363.16;;;8.45;74.22
7200;BME280;3641;49.082;8.200;2022-12-28T13:44:12;100357.00;;;8.43;73.79
7200;BME280;3641;49.082;8.200;2022-12-28T13:46:45;100356.00;;;8.44;73.89
7200;BME280;3641;49.082;8.200;2022-12-28T13:49:15;100350.19;;;8.39;73.98
7200;BME280;3641;49.082;8.200;2022-12-28T13:51:42;100340.22;;;8.47;73.92